Time;durP1;ratioP1;P1;durP2;ratioP2;P2;SDS_P1;SDS_P2;PMS_P1;PMS_P2;Temp;Humidity;BMP_temperature;BMP_pressure;BME280_temperature;BME280_humidity;BME280_pressure;Samples;Min_cycle;Max_cycle;Signal;HPM_P1;HPM_P2
2021/03/24 00:00:25;;;;;;;54.33;17.67;;;5.30;99.90;;;;;;4968058;27;20116;-88
2021/03/24 00:02:49;;;;;;;50.28;18.70;;;5.30;99.90;;;;;;4955185;27;20094;-86
2021/03/24 00:05:14;;;;;;;49.67;18.58;;;5.40;99.90;;;;;;4952457;27;20081;-87
2021/03/24 00:07:36;;;;;;;46.53;17.90;;;5.30;99.90;;;;;;4968978;27;20096;-88
2021/03/24 00:09:59;;;;;;;44.78;18.63;;;5.30;99.90;;;;;;4968272;27;20082;-88
2021/03/24 00:12:21;;;;;;;49.75;19.20;;;5.30;99.90;;;;;;4967775;27;20458;-85
2021/03/24 00:14:45;;;;;;;54.63;19.65;;;;;;;;;;4960621;27;20089;-84
2021/03/24 00:17:07;;;;;;;51.10;19.00;;;5.30;99.90;;;;;;4970018;27;20142;-87
2021/03/24 00:19:31;;;;;;;46.03;18.33;;;5.30;99.90;;;;;;4959170;27;20082;-88
2021/03/24 00:21:53;;;;;;;48.08;18.88;;;5.40;99.90;;;;;;4968163;27;20093;-90
2021/03/24 00:24:16;;;;;;;46.45;17.58;;;5.30;99.90;;;;;;4967996;27;20139;-87
2021/03/24 00:26:38;;;;;;;52.05;19.88;;;5.30;99.90;;;;;;4966013;27;20113;-87
2021/03/24 00:29:01;;;;;;;46.45;18.58;;;5.30;99.90;;;;;;4966788;27;20138;-87
2021/03/24 00:31:23;;;;;;;44.15;18.45;;;5.30;99.90;;;;;;4958280;27;20089;-89
2021/03/24 00:33:46;;;;;;;49.55;18.20;;;5.40;99.90;;;;;;4956675;27;20086;-87
2021/03/24 00:36:10;;;;;;;47.30;18.58;;;5.40;99.90;;;;;;4969977;27;20550;-88
2021/03/24 00:38:34;;;;;;;55.80;19.10;;;5.30;99.90;;;;;;4966555;27;20110;-87
2021/03/24 00:40:58;;;;;;;51.75;19.40;;;5.30;99.90;;;;;;4966409;27;20082;-88
2021/03/24 00:43:22;;;;;;;54.33;19.65;;;5.30;99.90;;;;;;4955792;27;20085;-89
2021/03/24 00:45:46;;;;;;;49.20;18.98;;;5.30;99.90;;;;;;4954107;27;20088;-87
2021/03/24 00:48:16;;;;;;;54.90;19.70;;;5.30;99.90;;;;;;4968436;27;20134;-87
2021/03/24 00:50:40;;;;;;;46.13;19.48;;;5.30;99.90;;;;;;4967822;27;20152;-87
2021/03/24 00:53:04;;;;;;;53.40;19.40;;;;;;;;;;4968110;27;20115;-86
2021/03/24 00:55:26;;;;;;;61.25;21.27;;;5.30;99.90;;;;;;4968318;27;20082;-87
2021/03/24 00:57:50;;;;;;;54.20;20.55;;;5.30;99.90;;;;;;4966060;27;20101;-88
2021/03/24 01:00:17;;;;;;;51.78;20.35;;;5.30;99.90;;;;;;4967681;27;20109;-88
2021/03/24 01:02:41;;;;;;;52.53;20.40;;;5.30;99.90;;;;;;4967989;27;20073;-85
2021/03/24 01:05:06;;;;;;;55.35;20.38;;;5.30;99.90;;;;;;4967976;27;20089;-88
2021/03/24 01:07:28;;;;;;;55.40;19.50;;;5.20;99.90;;;;;;4967966;27;20444;-86
2021/03/24 01:09:51;;;;;;;52.63;19.73;;;5.20;99.90;;;;;;4958288;27;20086;-87
2021/03/24 01:12:14;;;;;;;55.90;19.88;;;5.30;99.90;;;;;;4967324;27;20100;-87
2021/03/24 01:14:37;;;;;;;59.70;21.42;;;5.30;99.90;;;;;;4960606;27;20210;-89
2021/03/24 01:17:00;;;;;;;54.30;19.52;;;5.30;99.90;;;;;;4968180;27;20086;-87
2021/03/24 01:19:22;;;;;;;50.25;18.92;;;5.30;99.90;;;;;;4968930;27;20089;-89
2021/03/24 01:21:46;;;;;;;57.72;21.52;;;5.30;99.90;;;;;;4967612;27;20093;-86
2021/03/24 01:24:09;;;;;;;51.20;19.20;;;5.30;99.90;;;;;;4958871;27;20092;-87
2021/03/24 01:26:33;;;;;;;55.28;19.73;;;5.30;99.90;;;;;;4966312;27;20085;-88
2021/03/24 01:28:58;;;;;;;52.03;20.52;;;5.30;99.90;;;;;;4967455;27;20081;-86
2021/03/24 01:31:21;;;;;;;52.42;19.63;;;;;;;;;;4967532;27;20077;-80
2021/03/24 01:33:44;;;;;;;53.00;19.50;;;5.30;99.90;;;;;;4966043;27;20092;-86
2021/03/24 01:36:07;;;;;;;52.45;20.02;;;5.30;99.90;;;;;;4957639;27;20085;-89
2021/03/24 01:38:30;;;;;;;52.22;20.13;;;5.30;99.90;;;;;;4966330;27;20436;-88
2021/03/24 01:40:57;;;;;;;53.67;19.20;;;5.30;99.90;;;;;;4966689;27;20081;-87
2021/03/24 01:43:24;;;;;;;53.05;20.00;;;5.20;99.90;;;;;;4967177;27;20134;-88
2021/03/24 01:46:17;;;;;;;45.97;19.02;;;5.20;99.90;;;;;;4966452;27;20093;-89
2021/03/24 01:48:40;;;;;;;50.25;19.05;;;5.30;99.90;;;;;;4954646;27;20080;-86
2021/03/24 01:51:04;;;;;;;45.58;17.67;;;5.30;99.90;;;;;;4966701;27;20113;-88
2021/03/24 01:53:26;;;;;;;59.92;20.25;;;5.20;99.90;;;;;;4951656;27;20089;-85
2021/03/24 01:55:49;;;;;;;45.65;18.35;;;5.30;99.90;;;;;;4956580;27;20082;-86
2021/03/24 01:58:12;;;;;;;50.55;19.27;;;5.20;99.90;;;;;;4966240;27;20085;-87
2021/03/24 02:00:41;;;;;;;46.70;18.42;;;4.60;99.90;;;;;;4965777;27;20082;-89
2021/03/24 02:03:05;;;;;;;47.05;19.65;;;5.20;99.90;;;;;;4967269;27;20093;-88
2021/03/24 02:05:28;;;;;;;51.22;18.38;;;5.20;99.90;;;;;;4955881;27;20081;-86
2021/03/24 02:07:54;;;;;;;42.65;17.52;;;5.30;99.90;;;;;;4949692;27;20100;-84
2021/03/24 02:10:25;;;;;;;47.97;18.23;;;5.30;99.90;;;;;;4962379;27;20085;-89
2021/03/24 02:12:52;;;;;;;45.17;16.98;;;5.30;99.90;;;;;;4965860;27;20193;-89
2021/03/24 02:15:21;;;;;;;44.10;17.88;;;5.30;99.90;;;;;;4966255;27;20088;-88
2021/03/24 02:17:48;;;;;;;48.08;17.70;;;5.30;99.90;;;;;;4966437;27;20085;-85
2021/03/24 02:20:15;;;;;;;38.15;16.15;;;5.30;99.90;;;;;;4965848;27;20209;-89
2021/03/24 02:22:43;;;;;;;39.53;16.50;;;5.30;99.90;;;;;;4966219;27;20093;-88
2021/03/24 02:25:11;;;;;;;43.75;16.55;;;5.30;99.90;;;;;;4962999;27;20135;-90
2021/03/24 02:27:38;;;;;;;41.95;16.63;;;5.30;99.90;;;;;;4966542;27;20085;-89
2021/03/24 02:30:12;;;;;;;45.28;16.52;;;5.30;99.90;;;;;;4965648;27;20086;-89
2021/03/24 02:32:39;;;;;;;46.28;16.45;;;5.30;99.90;;;;;;4965778;27;20090;-87
2021/03/24 02:35:05;;;;;;;38.47;16.42;;;5.30;99.90;;;;;;4954778;27;20100;-84
2021/03/24 02:37:31;;;;;;;43.38;15.55;;;5.30;99.90;;;;;;4966228;27;20555;-86
2021/03/24 02:39:56;;;;;;;38.17;16.13;;;5.30;99.90;;;;;;4966628;27;20097;-88
2021/03/24 02:42:19;;;;;;;40.00;15.63;;;5.30;99.90;;;;;;4964807;27;20127;-89
2021/03/24 02:44:45;;;;;;;38.65;16.13;;;5.40;99.90;;;;;;4966176;27;20088;-86
2021/03/24 02:47:09;;;;;;;38.40;15.65;;;5.40;99.90;;;;;;4965190;27;20097;-89
2021/03/24 02:49:34;;;;;;;38.13;15.82;;;5.40;99.90;;;;;;4965489;27;20093;-87
2021/03/24 02:51:57;;;;;;;44.53;15.52;;;5.40;99.90;;;;;;4956979;27;20619;-88
2021/03/24 02:54:23;;;;;;;45.60;15.88;;;5.30;99.90;;;;;;4964809;27;20544;-86
2021/03/24 02:56:46;;;;;;;34.70;15.07;;;5.30;99.90;;;;;;4963809;27;20122;-89
2021/03/24 02:59:09;;;;;;;40.17;15.65;;;5.40;99.90;;;;;;4966541;27;20085;-88
2021/03/24 03:01:39;;;;;;;40.15;15.68;;;5.30;99.90;;;;;;4964540;27;20547;-85
2021/03/24 03:04:10;;;;;;;40.88;15.07;;;5.40;99.90;;;;;;4955436;27;20092;-86
2021/03/24 03:06:32;;;;;;;42.00;14.80;;;5.40;99.90;;;;;;4955674;27;20082;-87
2021/03/24 03:08:58;;;;;;;36.17;15.27;;;5.40;99.90;;;;;;4966575;27;20093;-86
2021/03/24 03:11:29;;;;;;;39.80;14.55;;;5.40;99.90;;;;;;4954475;27;20101;-84
2021/03/24 03:13:57;;;;;;;36.13;14.90;;;5.30;99.90;;;;;;4947269;27;20605;-89
2021/03/24 03:16:27;;;;;;;42.13;15.63;;;5.30;99.90;;;;;;4965285;27;20149;-89
2021/03/24 03:18:55;;;;;;;40.80;15.07;;;5.30;99.90;;;;;;4965859;27;20093;-89
2021/03/24 03:21:29;;;;;;;39.25;13.57;;;5.30;99.90;;;;;;4964692;27;20482;-89
2021/03/24 03:23:54;;;;;;;35.75;16.00;;;5.30;99.90;;;;;;4965199;27;20108;-88
2021/03/24 03:26:20;;;;;;;41.95;15.82;;;5.30;99.90;;;;;;4966879;27;20081;-88
2021/03/24 03:28:47;;;;;;;37.80;15.20;;;5.30;99.90;;;;;;4964490;27;20551;-89
2021/03/24 03:31:13;;;;;;;36.35;14.60;;;;;;;;;;4964410;27;20528;-87
2021/03/24 03:33:40;;;;;;;41.10;15.60;;;5.30;99.90;;;;;;4953990;27;20101;-89
2021/03/24 03:36:03;;;;;;;42.58;15.98;;;5.30;99.90;;;;;;4955397;27;20657;-89
2021/03/24 03:38:30;;;;;;;38.50;14.85;;;5.30;99.90;;;;;;4964211;27;20113;-89
2021/03/24 03:40:55;;;;;;;41.47;15.70;;;5.20;99.90;;;;;;4965628;27;20090;-88
2021/03/24 03:43:21;;;;;;;39.45;15.10;;;9.20;99.90;;;;;;4965221;27;20561;-89
2021/03/24 03:45:46;;;;;;;35.78;14.93;;;5.10;99.90;;;;;;4964899;27;20088;-88
2021/03/24 03:48:09;;;;;;;;;;;5.20;99.90;;;;;;4964811;27;20090;-90
2021/03/24 03:50:32;;;;;;;32.88;14.60;;;;;;;;;;4964152;27;19972;-89
2021/03/24 03:53:08;;;;;;;40.20;15.02;;;5.10;99.90;;;;;;4965938;27;20109;-88
2021/03/24 03:55:39;;;;;;;35.25;13.98;;;5.10;99.90;;;;;;4963173;27;20088;-88
2021/03/24 03:58:07;;;;;;;33.40;14.23;;;5.20;99.90;;;;;;4963190;27;20085;-89
2021/03/24 04:00:34;;;;;;;38.08;13.57;;;5.20;99.90;;;;;;4959029;27;20502;-88
2021/03/24 04:03:02;;;;;;;40.45;15.02;;;5.20;99.90;;;;;;4959622;27;20425;-89
2021/03/24 04:05:31;;;;;;;35.72;15.15;;;5.20;99.90;;;;;;4969509;27;20520;-89
2021/03/24 04:07:59;;;;;;;33.00;14.85;;;5.30;99.90;;;;;;4955012;27;20089;-87
2021/03/24 04:10:26;;;;;;;36.58;13.98;;;5.20;99.90;;;;;;4967492;27;20082;-89
2021/03/24 04:12:49;;;;;;;38.70;14.38;;;5.30;99.90;;;;;;4969111;27;20109;-89
2021/03/24 04:15:18;;;;;;;33.83;14.77;;;5.30;99.90;;;;;;4939368;27;20094;-85
2021/03/24 04:17:47;;;;;;;32.33;13.48;;;5.30;99.90;;;;;;4964459;27;20208;-90
2021/03/24 04:20:13;;;;;;;36.80;14.35;;;5.30;99.90;;;;;;4957963;27;21050;-89
2021/03/24 04:22:38;;;;;;;40.55;15.23;;;5.30;99.90;;;;;;4957777;27;20086;-88
2021/03/24 04:25:02;;;;;;;32.75;15.00;;;5.30;99.90;;;;;;4942461;27;20536;-86
2021/03/24 04:27:31;;;;;;;35.80;14.68;;;5.30;99.90;;;;;;4966252;27;20093;-86
2021/03/24 04:29:58;;;;;;;37.30;13.90;;;5.30;99.90;;;;;;4969535;27;20524;-89
2021/03/24 04:32:21;;;;;;;39.90;15.50;;;5.30;99.90;;;;;;4968445;27;20134;-87
2021/03/24 04:34:45;;;;;;;35.80;15.05;;;5.40;99.90;;;;;;4955454;27;20086;-86
2021/03/24 04:37:14;;;;;;;30.85;13.25;;;5.30;99.90;;;;;;4959210;27;20085;-89
2021/03/24 04:39:41;;;;;;;37.38;14.60;;;5.30;99.90;;;;;;4959669;27;20089;-88
2021/03/24 04:42:10;;;;;;;32.88;15.00;;;5.40;99.90;;;;;;4966390;27;20081;-86
2021/03/24 04:44:37;;;;;;;36.45;14.38;;;5.30;99.90;;;;;;4967882;27;20130;-88
2021/03/24 04:47:06;;;;;;;37.90;14.65;;;5.40;99.90;;;;;;4965823;27;20496;-89
2021/03/24 04:49:34;;;;;;;39.83;15.38;;;5.40;99.90;;;;;;4956893;27;20087;-88
2021/03/24 04:51:59;;;;;;;34.35;14.45;;;5.40;99.90;;;;;;4949612;27;20117;-87
2021/03/24 04:54:27;;;;;;;39.08;14.80;;;5.40;99.90;;;;;;4967847;27;20540;-89
2021/03/24 04:56:54;;;;;;;36.80;15.55;;;5.40;99.90;;;;;;4967092;27;20077;-87
2021/03/24 04:59:22;;;;;;;41.47;17.35;;;5.40;99.90;;;;;;4966675;27;20081;-89
2021/03/24 05:01:49;;;;;;;45.30;17.83;;;5.40;99.90;;;;;;4968675;27;20081;-89
2021/03/24 05:04:21;;;;;;;39.72;15.95;;;5.40;99.90;;;;;;4939520;27;20097;-89
2021/03/24 05:06:49;;;;;;;42.17;17.50;;;5.40;99.90;;;;;;4965483;27;20077;-88
2021/03/24 05:09:15;;;;;;;42.13;17.27;;;5.40;99.90;;;;;;4968584;27;20764;-89
2021/03/24 05:11:44;;;;;;;42.88;19.02;;;5.50;99.90;;;;;;4967826;27;20082;-88
2021/03/24 05:14:18;;;;;;;40.55;18.33;;;5.50;99.90;;;;;;4966833;27;20096;-88
2021/03/24 05:16:44;;;;;;;48.38;20.95;;;5.50;99.90;;;;;;4967374;27;20115;-90
2021/03/24 05:19:18;;;;;;;46.20;20.33;;;5.60;99.90;;;;;;4967255;27;20086;-89
2021/03/24 05:21:57;;;;;;;47.33;19.38;;;5.60;99.90;;;;;;4966836;27;20082;-85
2021/03/24 05:24:26;;;;;;;47.20;18.83;;;5.60;99.90;;;;;;4964185;27;20085;-89
2021/03/24 05:26:51;;;;;;;47.20;18.83;;;5.60;99.90;;;;;;4966343;27;20133;-89
2021/03/24 05:29:19;;;;;;;53.03;20.27;;;5.60;99.90;;;;;;4967713;27;21482;-89
2021/03/24 05:31:47;;;;;;;44.30;17.77;;;5.60;99.90;;;;;;4967215;27;20085;-87
2021/03/24 05:34:15;;;;;;;40.70;17.83;;;5.60;99.90;;;;;;4967152;27;20077;-85
2021/03/24 05:36:41;;;;;;;38.63;16.40;;;5.60;99.90;;;;;;4965021;27;20111;-88
2021/03/24 05:39:12;;;;;;;44.20;17.13;;;5.60;99.90;;;;;;4964568;27;20443;-86
2021/03/24 05:41:41;;;;;;;38.08;15.70;;;5.60;99.90;;;;;;4963143;27;20085;-85
2021/03/24 05:44:41;;;;;;;40.40;16.10;;;5.60;99.90;;;;;;4965712;27;20093;-88
2021/03/24 05:47:31;;;;;;;37.88;16.08;;;5.60;99.90;;;;;;4963258;27;20155;-83
2021/03/24 05:50:05;;;;;;;39.17;15.98;;;5.70;99.90;;;;;;4965527;27;20077;-88
2021/03/24 05:52:43;;;;;;;42.17;15.52;;;5.70;99.90;;;;;;4965320;27;20440;-87
2021/03/24 05:55:24;;;;;;;37.20;16.45;;;5.70;99.90;;;;;;4964434;27;20084;-89
2021/03/24 05:57:59;;;;;;;37.95;16.25;;;5.60;99.90;;;;;;4966804;27;20155;-86
2021/03/24 06:00:39;;;;;;;42.03;16.83;;;5.60;99.90;;;;;;4965423;27;20160;-90
2021/03/24 06:03:14;;;;;;;40.15;17.65;;;5.70;99.90;;;;;;4961356;27;20097;-86
2021/03/24 06:05:47;;;;;;;38.45;16.27;;;5.70;99.90;;;;;;4965958;27;20078;-86
2021/03/24 06:08:40;;;;;;;38.55;16.60;;;5.70;99.90;;;;;;4964975;27;20078;-88
2021/03/24 06:11:21;;;;;;;43.47;17.60;;;5.70;99.90;;;;;;4966902;27;20086;-90
2021/03/24 06:14:17;;;;;;;44.15;18.00;;;5.70;99.90;;;;;;4963160;27;20088;-89
2021/03/24 06:17:08;;;;;;;48.10;18.65;;;5.80;99.90;;;;;;4963788;27;20077;-83
2021/03/24 06:19:43;;;;;;;43.92;18.55;;;5.80;99.90;;;;;;4934408;27;20090;-88
2021/03/24 06:22:18;;;;;;;51.83;18.20;;;5.80;99.90;;;;;;4963514;27;20080;-84
2021/03/24 06:24:59;;;;;;;43.78;18.80;;;5.80;99.90;;;;;;4963023;27;20133;-88
2021/03/24 06:27:49;;;;;;;48.90;18.23;;;5.80;99.90;;;;;;4953220;27;20085;-88
2021/03/24 06:30:38;;;;;;;45.45;19.48;;;5.80;99.90;;;;;;4951178;27;20092;-88
2021/03/24 06:33:45;;;;;;;49.80;19.33;;;5.90;99.90;;;;;;4952992;27;20085;-89
2021/03/24 06:36:46;;;;;;;47.33;20.05;;;5.90;99.90;;;;;;4956498;27;20093;-87
2021/03/24 06:39:30;;;;;;;44.03;18.88;;;6.00;99.90;;;;;;4961740;27;20077;-88
2021/03/24 06:42:26;;;;;;;52.65;21.17;;;6.00;99.90;;;;;;4964274;27;20081;-86
2021/03/24 06:45:14;;;;;;;50.83;20.45;;;6.10;99.90;;;;;;4962364;27;20117;-89
2021/03/24 06:47:48;;;;;;;47.20;19.88;;;6.10;99.90;;;;;;4964046;27;20501;-88
2021/03/24 06:51:01;;;;;;;54.20;21.88;;;6.20;99.90;;;;;;4963398;27;20088;-88
2021/03/24 06:53:59;;;;;;;51.55;22.40;;;6.20;99.90;;;;;;4964653;27;20089;-89
2021/03/24 06:57:04;;;;;;;47.17;20.10;;;6.30;99.90;;;;;;4963538;27;20089;-88
2021/03/24 06:59:57;;;;;;;56.00;21.70;;;6.30;99.90;;;;;;4898011;27;20081;-86
2021/03/24 07:03:10;;;;;;;52.50;21.55;;;6.40;99.90;;;;;;4961415;27;20089;-87
2021/03/24 07:06:03;;;;;;;53.00;20.73;;;6.40;99.90;;;;;;4964122;27;20089;-88
2021/03/24 07:08:59;;;;;;;48.67;20.35;;;6.40;99.90;;;;;;4961203;27;20105;-89
2021/03/24 07:11:38;;;;;;;56.30;22.80;;;6.40;99.90;;;;;;4928413;27;20085;-85
2021/03/24 07:14:41;;;;;;;55.45;22.23;;;6.50;99.90;;;;;;4961916;27;20089;-88
2021/03/24 07:17:45;;;;;;;54.45;20.95;;;6.50;99.90;;;;;;4965369;27;20085;-88
2021/03/24 07:20:44;;;;;;;56.25;21.70;;;6.60;99.90;;;;;;4913698;27;20115;-86
2021/03/24 07:23:47;;;;;;;54.05;21.50;;;6.60;99.90;;;;;;4958208;27;20428;-87
2021/03/24 07:26:17;;;;;;;51.92;22.27;;;6.60;99.90;;;;;;4963621;27;20081;-83
2021/03/24 07:29:01;;;;;;;58.67;22.85;;;6.60;99.90;;;;;;4961595;27;20097;-89
2021/03/24 07:31:44;;;;;;;51.63;21.90;;;6.70;99.90;;;;;;4964080;27;20144;-86
2021/03/24 07:34:19;;;;;;;50.08;21.55;;;6.70;99.90;;;;;;4961891;27;20234;-88
2021/03/24 07:37:09;;;;;;;49.97;21.48;;;6.70;99.90;;;;;;4966146;27;20192;-87
2021/03/24 07:40:02;;;;;;;57.15;22.08;;;6.80;99.90;;;;;;4966901;27;20082;-86
2021/03/24 07:43:17;;;;;;;57.95;22.27;;;6.80;99.90;;;;;;4967407;27;20146;-82
2021/03/24 07:46:08;;;;;;;50.38;21.27;;;6.80;99.90;;;;;;4935665;27;20093;-88
2021/03/24 07:48:57;;;;;;;54.15;22.48;;;6.90;99.90;;;;;;4967342;27;20534;-83
2021/03/24 07:51:28;;;;;;;59.42;23.52;;;6.90;99.90;;;;;;4967443;27;20138;-82
2021/03/24 07:54:00;;;;;;;54.78;23.13;;;6.90;99.90;;;;;;4967782;27;20108;-86
2021/03/24 07:56:36;;;;;;;54.08;22.63;;;6.90;99.90;;;;;;4969136;27;20564;-88
2021/03/24 07:59:25;;;;;;;58.13;22.27;;;7.00;99.90;;;;;;4967417;27;20132;-88
2021/03/24 08:02:01;;;;;;;56.90;23.65;;;7.00;99.90;;;;;;4967448;27;20123;-88
2021/03/24 08:04:52;;;;;;;56.53;22.13;;;7.00;99.90;;;;;;4968246;27;20146;-85
2021/03/24 08:07:26;;;;;;;50.95;21.55;;;7.10;99.90;;;;;;4966097;27;20119;-87
2021/03/24 08:10:02;;;;;;;53.05;22.55;;;7.10;99.90;;;;;;4967947;27;20091;-86
2021/03/24 08:12:39;;;;;;;;;;;7.10;99.90;;;;;;4968008;27;20088;-89
2021/03/24 08:15:21;;;;;;;51.17;21.10;;;7.10;99.90;;;;;;4968960;27;19965;-89
2021/03/24 08:17:51;;;;;;;58.85;23.17;;;7.20;99.90;;;;;;4968632;27;20575;-86
2021/03/24 08:20:26;;;;;;;55.45;23.58;;;7.30;99.90;;;;;;4967006;27;20093;-84
2021/03/24 08:23:04;;;;;;;56.10;22.65;;;7.30;99.90;;;;;;4967771;27;20087;-86
2021/03/24 08:25:43;;;;;;;54.78;22.13;;;7.30;99.90;;;;;;4969263;27;20088;-89
2021/03/24 08:28:15;;;;;;;52.20;23.38;;;7.30;99.90;;;;;;4966567;27;20088;-88
2021/03/24 08:31:14;;;;;;;55.42;22.33;;;7.40;99.90;;;;;;4965618;27;20108;-81
2021/03/24 08:34:03;;;;;;;61.67;22.58;;;7.40;99.90;;;;;;4964908;27;20504;-85
2021/03/24 08:36:59;;;;;;;51.70;23.33;;;7.50;99.90;;;;;;4966939;27;20084;-86
2021/03/24 08:39:45;;;;;;;55.60;22.52;;;7.50;99.90;;;;;;4964667;27;20081;-87
2021/03/24 08:42:58;;;;;;;50.67;22.48;;;7.60;99.90;;;;;;4967040;27;20895;-86
2021/03/24 08:45:27;;;;;;;54.55;23.23;;;7.60;99.90;;;;;;4948673;27;20150;-84
2021/03/24 08:47:53;;;;;;;60.75;23.02;;;7.70;99.90;;;;;;4965494;27;20528;-89
2021/03/24 08:50:20;;;;;;;54.45;23.50;;;7.70;99.90;;;;;;4968754;27;20442;-85
2021/03/24 08:52:52;;;;;;;54.13;23.08;;;7.70;99.90;;;;;;4965752;27;20095;-86
2021/03/24 08:55:34;;;;;;;51.05;21.85;;;7.80;99.90;;;;;;4971001;27;20088;-86
2021/03/24 08:58:15;;;;;;;53.25;22.40;;;7.90;99.90;;;;;;4965849;27;20083;-87
2021/03/24 09:00:54;;;;;;;62.55;22.88;;;8.00;99.90;;;;;;4959984;27;20159;-85
2021/03/24 09:03:45;;;;;;;57.80;23.70;;;8.00;99.90;;;;;;4923609;27;20515;-86
2021/03/24 09:06:17;;;;;;;53.40;22.70;;;8.00;99.90;;;;;;4897157;27;20107;-85
2021/03/24 09:08:47;;;;;;;59.90;23.27;;;8.10;99.90;;;;;;4935829;27;20084;-84
2021/03/24 09:11:49;;;;;;;57.08;22.83;;;8.20;99.90;;;;;;4899260;27;20625;-81
2021/03/24 09:14:32;;;;;;;55.00;22.38;;;8.20;99.90;;;;;;4828078;28;20090;-86
2021/03/24 09:17:43;;;;;;;63.40;24.70;;;8.30;99.90;;;;;;4904225;27;20086;-84
2021/03/24 09:21:11;;;;;;;59.17;23.38;;;8.40;99.90;;;;;;4907149;27;20090;-84
2021/03/24 09:24:04;;;;;;;53.45;22.55;;;8.50;99.90;;;;;;4935815;27;20094;-85
2021/03/24 09:27:15;;;;;;;57.45;24.27;;;8.50;99.90;;;;;;4931497;27;20170;-83
2021/03/24 09:30:06;;;;;;;58.95;23.83;;;8.70;99.90;;;;;;4897216;27;20135;-83
2021/03/24 09:32:34;;;;;;;60.95;24.42;;;8.70;99.90;;;;;;4928270;27;22832;-83
2021/03/24 09:35:20;;;;;;;50.70;21.15;;;8.80;99.90;;;;;;4964020;27;20111;-83
2021/03/24 09:37:50;;;;;;;53.42;22.30;;;8.90;99.90;;;;;;4932837;27;20094;-83
2021/03/24 09:40:27;;;;;;;57.60;22.73;;;9.00;99.90;;;;;;4934171;27;20087;-83
2021/03/24 09:42:58;;;;;;;58.10;22.42;;;8.90;99.90;;;;;;4899027;27;20105;-82
2021/03/24 09:45:30;;;;;;;55.75;23.23;;;8.90;99.90;;;;;;4928041;27;20071;-85
2021/03/24 09:48:01;;;;;;;49.22;20.83;;;8.90;99.90;;;;;;4915372;27;20085;-82
2021/03/24 09:50:36;;;;;;;49.58;20.98;;;9.00;99.90;;;;;;4902989;27;20098;-83
2021/03/24 09:53:06;;;;;;;50.45;21.02;;;9.00;99.90;;;;;;4904340;27;20122;-80
2021/03/24 09:55:38;;;;;;;49.90;19.85;;;9.10;99.90;;;;;;4917847;27;20079;-83
2021/03/24 10:01:52;;;;;;;49.35;21.63;;;9.10;99.90;;;;;;4916374;27;20083;-82
2021/03/24 10:04:41;;;;;;;51.38;20.35;;;9.20;99.90;;;;;;4921845;27;20091;-85
2021/03/24 10:07:11;;;;;;;47.45;20.08;;;9.10;99.90;;;;;;4910443;27;20102;-83
2021/03/24 10:09:44;;;;;;;49.67;20.83;;;9.10;99.90;;;;;;4920778;27;20547;-82
2021/03/24 10:12:26;;;;;;;47.17;20.25;;;9.20;99.90;;;;;;4911879;27;20097;-85
2021/03/24 10:14:58;;;;;;;50.45;21.40;;;9.10;99.90;;;;;;4914204;27;20098;-85
2021/03/24 10:17:51;;;;;;;53.97;22.83;;;9.10;99.90;;;;;;4887053;27;20162;-82
2021/03/24 10:20:34;;;;;;;67.68;22.33;;;9.00;99.90;;;;;;4919013;27;22573;-84
2021/03/24 10:23:21;;;;;;;50.22;21.85;;;9.10;99.90;;;;;;4900057;27;20455;-83
2021/03/24 10:25:58;;;;;;;53.67;23.02;;;9.20;99.90;;;;;;4898081;27;20090;-83
2021/03/24 10:28:40;;;;;;;57.78;23.63;;;9.20;99.90;;;;;;4891569;27;20174;-85
2021/03/24 10:31:34;;;;;;;56.65;22.92;;;9.10;99.90;;;;;;4906521;27;20453;-85
2021/03/24 10:34:01;;;;;;;57.38;23.15;;;9.10;99.90;;;;;;4923831;27;20092;-83
2021/03/24 10:36:38;;;;;;;51.38;22.77;;;9.00;99.90;;;;;;4913699;27;20129;-84
2021/03/24 10:39:29;;;;;;;56.53;22.98;;;8.90;99.90;;;;;;4913267;27;20186;-85
2021/03/24 10:45:18;;;;;;;48.72;22.45;;;9.00;99.90;;;;;;4924743;27;20095;-83
2021/03/24 10:47:48;;;;;;;54.20;21.88;;;9.20;99.90;;;;;;4926216;27;20560;-85
2021/03/24 10:50:26;;;;;;;48.17;19.75;;;9.30;99.90;;;;;;4892593;27;20082;-83
2021/03/24 10:53:17;;;;;;;50.50;21.58;;;9.20;99.90;;;;;;4940568;27;20091;-86
2021/03/24 10:55:45;;;;;;;48.97;20.75;;;9.20;99.90;;;;;;4906955;27;20456;-85
2021/03/24 10:58:56;;;;;;;48.50;21.20;;;9.40;99.90;;;;;;4895099;27;20093;-84
2021/03/24 11:01:25;;;;;;;46.92;17.73;;;9.80;99.90;;;;;;4844135;28;20088;-85
2021/03/24 11:04:03;;;;;;;36.70;17.45;;;9.80;99.90;;;;;;4921125;27;22280;-85
2021/03/24 11:06:33;;;;;;;37.83;17.75;;;9.60;99.90;;;;;;4957070;27;20099;-83
2021/03/24 11:09:02;;;;;;;39.28;17.65;;;9.50;99.90;;;;;;4965134;27;20091;-86
2021/03/24 11:11:37;;;;;;;54.50;19.02;;;9.40;99.90;;;;;;4965758;27;20083;-85
2021/03/24 11:14:05;;;;;;;46.78;19.38;;;9.40;99.90;;;;;;4964634;27;20402;-84
2021/03/24 11:16:38;;;;;;;47.75;20.00;;;9.20;99.90;;;;;;4967762;27;20438;-86
2021/03/24 11:19:12;;;;;;;42.35;19.20;;;9.10;99.90;;;;;;4952240;27;25409;-86
2021/03/24 11:21:43;;;;;;;46.17;17.52;;;9.10;99.90;;;;;;4964898;27;20080;-85
2021/03/24 11:24:20;;;;;;;50.15;19.95;;;9.20;99.90;;;;;;4964940;27;20079;-83
2021/03/24 11:27:05;;;;;;;41.70;17.52;;;9.60;99.90;;;;;;4962558;27;20075;-84
2021/03/24 11:29:34;;;;;;;36.30;17.02;;;9.80;99.90;;;;;;4960211;27;20079;-85
2021/03/24 11:32:06;;;;;;;35.75;17.15;;;10.00;99.90;;;;;;4967787;27;20490;-85
2021/03/24 11:34:38;;;;;;;35.80;16.35;;;10.00;99.90;;;;;;4962683;27;20125;-84
2021/03/24 11:37:06;;;;;;;35.45;16.27;;;10.00;99.90;;;;;;4964227;27;20115;-84
2021/03/24 11:39:34;;;;;;;42.22;15.98;;;9.90;99.90;;;;;;4953010;27;20087;-85
2021/03/24 11:42:14;;;;;;;34.80;16.30;;;9.80;99.90;;;;;;4963314;27;20083;-85
2021/03/24 11:44:39;;;;;;;35.70;15.93;;;9.70;99.90;;;;;;4965187;27;20106;-84
2021/03/24 11:47:10;;;;;;;35.37;16.43;;;9.70;99.90;;;;;;4960032;27;20087;-85
2021/03/24 11:49:42;;;;;;;33.38;16.02;;;9.80;99.90;;;;;;4964131;27;20824;-84
2021/03/24 11:52:27;;;;;;;38.30;17.25;;;9.80;99.90;;;;;;4966833;27;20087;-84
2021/03/24 11:55:06;;;;;;;40.45;16.85;;;10.00;99.90;;;;;;4965961;27;20461;-85
2021/03/24 11:57:46;;;;;;;36.22;15.70;;;10.10;99.90;;;;;;4962072;27;20090;-85
2021/03/24 12:00:28;;;;;;;36.10;16.95;;;10.00;99.90;;;;;;4962595;27;20082;-80
2021/03/24 12:03:09;;;;;;;38.33;17.10;;;9.90;99.90;;;;;;4962159;27;20122;-86
2021/03/24 12:05:37;;;;;;;41.88;15.93;;;10.10;99.90;;;;;;4963495;27;20083;-84
2021/03/24 12:08:23;;;;;;;34.63;15.13;;;10.00;99.90;;;;;;4963952;27;20114;-85
2021/03/24 12:10:57;;;;;;;;;;;10.00;99.90;;;;;;4963131;27;20090;-84
2021/03/24 12:13:29;;;;;;;35.17;15.88;;;9.90;99.90;;;;;;4963258;27;20485;-85
2021/03/24 12:16:04;;;;;;;36.90;16.73;;;10.00;99.90;;;;;;4961443;27;20449;-82
2021/03/24 12:18:26;;;;;;;42.83;17.17;;;9.90;99.90;;;;;;4962176;27;20079;-86
2021/03/24 12:20:55;;;;;;;40.05;17.27;;;9.70;99.90;;;;;;4962519;27;20087;-84
2021/03/24 12:26:29;;;;;;;38.15;16.77;;;9.70;99.90;;;;;;4962290;27;20075;-87
2021/03/24 12:28:55;;;;;;;33.17;15.93;;;9.70;99.90;;;;;;4965955;27;20163;-86
2021/03/24 12:31:21;;;;;;;37.97;15.63;;;9.60;99.90;;;;;;4966303;27;20110;-86
2021/03/24 12:33:50;;;;;;;37.03;16.25;;;9.60;99.90;;;;;;4966801;27;20707;-87
2021/03/24 12:36:18;;;;;;;36.80;17.15;;;9.60;99.90;;;;;;4968034;27;20087;-85
2021/03/24 12:38:48;;;;;;;34.05;16.95;;;9.70;99.90;;;;;;4966592;27;20663;-85
2021/03/24 12:41:11;;;;;;;37.20;16.60;;;9.60;99.90;;;;;;4966193;27;20136;-84
2021/03/24 12:43:36;;;;;;;40.67;16.67;;;9.60;99.90;;;;;;4966559;27;20090;-84
2021/03/24 12:46:08;;;;;;;39.77;17.93;;;9.70;99.90;;;;;;4966774;27;20098;-85
2021/03/24 12:48:35;;;;;;;40.50;18.63;;;9.70;99.90;;;;;;4966246;27;20079;-86
2021/03/24 12:51:03;;;;;;;46.95;18.35;;;9.70;99.90;;;;;;4965002;27;20314;-85
2021/03/24 12:53:42;;;;;;;48.05;18.60;;;9.80;99.90;;;;;;4966736;27;20083;-85
2021/03/24 12:56:34;;;;;;;40.50;18.20;;;9.70;99.90;;;;;;4966884;27;20498;-87
2021/03/24 12:59:00;;;;;;;44.47;19.67;;;9.70;99.90;;;;;;4947124;27;20112;-87
2021/03/24 13:01:47;;;;;;;46.20;20.10;;;9.70;99.90;;;;;;4964781;27;20079;-86
2021/03/24 13:04:37;;;;;;;48.55;19.92;;;9.60;99.90;;;;;;4960055;27;20535;-85
2021/03/24 13:07:27;;;;;;;42.47;18.58;;;9.50;99.90;;;;;;4956420;27;20215;-86
2021/03/24 13:10:05;;;;;;;42.55;18.83;;;9.60;99.90;;;;;;4963871;27;20522;-84
2021/03/24 13:12:32;;;;;;;40.28;17.30;;;9.70;99.90;;;;;;4964526;27;20086;-85
2021/03/24 13:15:08;;;;;;;39.78;18.33;;;9.70;99.90;;;;;;4965155;27;20087;-85
2021/03/24 13:17:41;;;;;;;37.35;17.23;;;9.60;99.90;;;;;;4964352;27;20117;-84
2021/03/24 13:20:18;;;;;;;35.42;17.05;;;9.60;99.90;;;;;;4967789;27;20083;-80
2021/03/24 13:22:45;;;;;;;40.58;18.33;;;9.60;99.90;;;;;;4963805;27;20074;-83